createdAt,value
2022-10-03T00:00:15.782Z,96.20
2022-10-03T00:01:47.340Z,96.30
2022-10-03T00:03:30.472Z,96.30
2022-10-03T00:05:00.219Z,96.30
2022-10-03T00:06:11.814Z,96.30
2022-10-03T00:07:34.002Z,96.30
2022-10-03T00:09:13.722Z,96.30
2022-10-03T00:10:31.593Z,96.30
2022-10-03T00:11:46.819Z,96.30
2022-10-03T00:13:05.510Z,96.30
2022-10-03T00:14:18.089Z,96.30
2022-10-03T00:15:29.031Z,96.30
2022-10-03T00:16:44.606Z,96.30
2022-10-03T00:18:04.634Z,96.30
2022-10-03T00:19:20.898Z,96.30
2022-10-03T00:20:50.277Z,96.30
2022-10-03T00:22:13.079Z,96.30
2022-10-03T00:23:26.734Z,96.30
2022-10-03T00:24:48.122Z,96.30
2022-10-03T00:25:57.112Z,96.30
2022-10-03T00:27:08.892Z,96.30
2022-10-03T00:28:29.006Z,96.30
2022-10-03T00:29:57.572Z,96.30
2022-10-03T00:31:12.636Z,96.30
2022-10-03T00:32:34.238Z,96.30
2022-10-03T00:33:52.513Z,96.30
2022-10-03T00:35:13.871Z,96.30
2022-10-03T00:36:29.213Z,96.30
2022-10-03T00:37:38.678Z,96.30
2022-10-03T00:39:07.905Z,96.30
2022-10-03T00:41:06.293Z,96.30
2022-10-03T00:43:05.453Z,96.30
2022-10-03T00:44:55.687Z,96.30
2022-10-03T00:46:53.838Z,96.30
2022-10-03T00:48:42.508Z,96.30
2022-10-03T00:50:42.316Z,96.30
2022-10-03T00:51:58.564Z,96.30
2022-10-03T00:53:34.351Z,96.30
2022-10-03T00:54:56.414Z,96.30
2022-10-03T00:56:34.190Z,96.30
2022-10-03T00:58:04.323Z,96.30
2022-10-03T00:59:27.569Z,96.30
2022-10-03T01:00:33.785Z,96.30
2022-10-03T01:01:44.229Z,96.30
2022-10-03T01:03:40.616Z,96.30
2022-10-03T01:04:55.801Z,96.30
2022-10-03T01:06:21.820Z,96.30
2022-10-03T01:07:54.853Z,96.30
2022-10-03T01:09:35.649Z,96.30
2022-10-03T01:10:48.862Z,96.30
2022-10-03T01:12:18.201Z,96.30
2022-10-03T01:13:37.043Z,96.30
2022-10-03T01:15:02.639Z,96.30
2022-10-03T01:16:20.095Z,96.30
2022-10-03T01:17:39.270Z,96.30
2022-10-03T01:19:02.181Z,96.30
2022-10-03T01:20:22.363Z,96.30
2022-10-03T01:21:39.638Z,96.30
2022-10-03T01:23:17.244Z,96.30
2022-10-03T01:24:53.689Z,96.30
2022-10-03T01:26:15.518Z,96.30
2022-10-03T01:27:31.364Z,96.30
2022-10-03T01:29:05.669Z,96.30
2022-10-03T01:30:23.233Z,96.30
2022-10-03T01:31:34.734Z,96.30
2022-10-03T01:32:49.256Z,96.30
2022-10-03T01:34:01.113Z,96.30
2022-10-03T01:35:22.534Z,96.30
2022-10-03T01:36:35.042Z,96.30
2022-10-03T01:37:52.618Z,96.30
2022-10-03T01:39:01.936Z,96.30
2022-10-03T01:40:17.048Z,96.30
2022-10-03T01:41:29.522Z,96.30
2022-10-03T01:42:44.584Z,96.30
2022-10-03T01:43:55.834Z,96.30
2022-10-03T01:45:13.203Z,96.30
2022-10-03T01:46:23.351Z,96.30
2022-10-03T01:47:34.215Z,96.30
2022-10-03T01:48:52.415Z,96.30
2022-10-03T01:50:02.987Z,96.30
2022-10-03T01:51:16.672Z,96.30
2022-10-03T01:52:31.093Z,96.30
2022-10-03T01:53:56.354Z,96.30
2022-10-03T01:55:12.540Z,96.30
2022-10-03T01:56:26.824Z,96.30
2022-10-03T01:57:39.438Z,96.30
2022-10-03T01:59:01.273Z,96.30
2022-10-03T02:00:11.096Z,96.30
2022-10-03T02:01:30.412Z,96.30
2022-10-03T02:02:42.759Z,96.30
2022-10-03T02:03:58.182Z,96.30
2022-10-03T02:05:10.211Z,96.30
2022-10-03T02:06:24.534Z,96.30
2022-10-03T02:07:42.003Z,96.30
2022-10-03T02:08:56.415Z,96.30
2022-10-03T02:10:12.093Z,96.30
2022-10-03T02:11:32.697Z,96.30
2022-10-03T02:12:46.831Z,96.30
2022-10-03T02:13:52.903Z,96.30
2022-10-03T02:15:02.103Z,96.30
2022-10-03T02:16:17.758Z,96.30
2022-10-03T02:17:42.321Z,96.30
2022-10-03T02:18:52.117Z,96.30
2022-10-03T02:20:07.837Z,96.30
2022-10-03T02:21:18.672Z,96.30
2022-10-03T02:22:38.647Z,96.30
2022-10-03T02:23:45.842Z,96.30
2022-10-03T02:24:57.397Z,96.30
2022-10-03T02:26:28.090Z,96.30
2022-10-03T02:28:11.717Z,96.30
2022-10-03T02:29:41.399Z,96.30
2022-10-03T02:31:17.787Z,96.30
2022-10-03T02:33:15.728Z,96.30
2022-10-03T02:34:49.118Z,96.30
2022-10-03T02:36:37.402Z,96.30
2022-10-03T02:38:21.392Z,96.30
2022-10-03T02:40:24.632Z,96.30
2022-10-03T02:42:13.124Z,96.30
2022-10-03T02:43:43.429Z,96.30
2022-10-03T02:45:35.074Z,96.30
2022-10-03T02:47:33.734Z,96.30
2022-10-03T02:49:07.579Z,96.30
2022-10-03T02:51:06.560Z,96.30
2022-10-03T02:52:50.795Z,96.30
2022-10-03T02:54:50.915Z,96.30
2022-10-03T02:56:47.760Z,96.30
2022-10-03T02:58:45.295Z,96.30
2022-10-03T03:00:13.153Z,96.30
2022-10-03T03:02:03.761Z,96.30
2022-10-03T03:03:55.872Z,96.30
2022-10-03T03:05:31.045Z,96.30
2022-10-03T03:07:03.806Z,96.30
2022-10-03T03:09:03.609Z,96.30
2022-10-03T03:10:48.111Z,96.30
2022-10-03T03:12:24.401Z,96.30
2022-10-03T03:14:10.493Z,96.30
2022-10-03T03:16:11.948Z,96.30
2022-10-03T03:17:33.983Z,96.30
2022-10-03T03:18:45.393Z,96.30
2022-10-03T03:20:05.976Z,96.30
2022-10-03T03:21:30.612Z,96.30
2022-10-03T03:22:57.844Z,96.30
2022-10-03T03:24:23.449Z,96.30
2022-10-03T03:25:51.916Z,96.30
2022-10-03T03:27:18.929Z,96.30
2022-10-03T03:28:39.714Z,96.30
2022-10-03T03:29:55.354Z,96.30
2022-10-03T03:31:11.850Z,96.30
2022-10-03T03:32:34.458Z,96.30
2022-10-03T03:33:54.333Z,96.30
2022-10-03T03:35:12.030Z,96.30
2022-10-03T03:36:24.890Z,96.30
2022-10-03T03:37:38.238Z,96.30
2022-10-03T03:38:54.920Z,96.30
2022-10-03T03:40:21.417Z,96.30
2022-10-03T03:41:47.592Z,96.30
2022-10-03T03:43:19.489Z,96.30
2022-10-03T03:44:47.185Z,96.30
2022-10-03T03:46:12.085Z,96.30
2022-10-03T03:47:38.875Z,96.30
2022-10-03T03:49:16.369Z,96.30
2022-10-03T03:50:38.443Z,96.30
2022-10-03T03:51:52.464Z,96.30
2022-10-03T03:53:34.204Z,96.30
2022-10-03T03:55:19.879Z,96.30
2022-10-03T03:57:01.279Z,96.30
2022-10-03T03:58:33.250Z,96.30
2022-10-03T04:00:05.037Z,96.30
2022-10-03T04:01:49.163Z,96.30
2022-10-03T04:03:25.458Z,96.30
2022-10-03T04:04:45.866Z,96.30
2022-10-03T04:06:18.589Z,96.30
2022-10-03T04:07:37.160Z,96.30
2022-10-03T04:09:02.186Z,96.30
2022-10-03T04:10:18.424Z,96.30
2022-10-03T04:11:38.824Z,96.30
2022-10-03T04:13:25.545Z,96.30
2022-10-03T04:15:01.695Z,96.30
2022-10-03T04:16:50.464Z,96.30
2022-10-03T04:18:36.865Z,96.30
2022-10-03T04:19:57.072Z,96.30
2022-10-03T04:21:21.440Z,96.30
2022-10-03T04:22:53.658Z,96.30
2022-10-03T04:24:34.788Z,96.30
2022-10-03T04:26:11.096Z,96.30
2022-10-03T04:27:38.164Z,96.30
2022-10-03T04:29:17.196Z,96.30
2022-10-03T04:30:29.660Z,96.30
2022-10-03T04:31:45.271Z,96.30
2022-10-03T04:33:21.991Z,96.30
2022-10-03T04:34:41.673Z,96.30
2022-10-03T04:36:24.690Z,96.30
2022-10-03T04:37:41.554Z,96.30
2022-10-03T04:38:57.756Z,96.30
2022-10-03T04:40:23.380Z,96.30
2022-10-03T04:41:38.749Z,96.30
2022-10-03T04:42:56.009Z,96.30
2022-10-03T04:44:13.066Z,96.30
2022-10-03T04:45:34.834Z,96.30
2022-10-03T04:46:46.797Z,96.30
2022-10-03T04:47:53.699Z,96.30
2022-10-03T04:49:08.048Z,96.30
2022-10-03T04:50:27.594Z,96.30
2022-10-03T04:51:52.018Z,96.30
2022-10-03T04:53:18.970Z,96.30
2022-10-03T04:54:34.251Z,96.30
2022-10-03T04:55:45.938Z,96.30
2022-10-03T04:56:59.457Z,96.30
2022-10-03T04:58:15.830Z,96.30
2022-10-03T04:59:50.007Z,96.30
2022-10-03T05:01:06.879Z,96.30
2022-10-03T05:02:26.179Z,96.30
2022-10-03T05:03:44.751Z,96.30
2022-10-03T05:05:09.086Z,96.30
2022-10-03T05:06:32.716Z,96.30
2022-10-03T05:07:45.776Z,96.30
2022-10-03T05:09:00.050Z,96.30
2022-10-03T05:10:20.477Z,96.30
2022-10-03T05:11:47.507Z,96.30
2022-10-03T05:13:02.474Z,96.30
2022-10-03T05:14:14.491Z,96.30
2022-10-03T05:15:24.383Z,96.30
2022-10-03T05:16:41.128Z,96.30
2022-10-03T05:17:52.373Z,96.30
2022-10-03T05:19:09.424Z,96.30
2022-10-03T05:20:33.598Z,96.30
2022-10-03T05:21:41.979Z,96.30
2022-10-03T05:22:57.937Z,96.30
2022-10-03T05:24:17.976Z,96.30
2022-10-03T05:25:35.757Z,96.30
2022-10-03T05:26:46.853Z,96.30
2022-10-03T05:27:55.403Z,96.30
2022-10-03T05:29:15.528Z,96.30
2022-10-03T05:30:35.374Z,96.30
2022-10-03T05:31:53.676Z,96.30
2022-10-03T05:33:08.875Z,96.30
2022-10-03T05:34:34.579Z,96.30
2022-10-03T05:35:58.158Z,96.30
2022-10-03T05:37:45.068Z,96.30
2022-10-03T05:39:27.139Z,96.30
2022-10-03T05:40:33.934Z,96.30
2022-10-03T05:41:39.243Z,96.30
2022-10-03T05:43:05.898Z,96.30
2022-10-03T05:44:17.373Z,96.30
2022-10-03T05:45:31.718Z,96.30
2022-10-03T05:46:55.842Z,96.30
2022-10-03T05:48:16.186Z,96.30
2022-10-03T05:50:00.411Z,96.30
2022-10-03T05:51:39.412Z,96.30
2022-10-03T05:53:26.847Z,96.30
2022-10-03T05:55:02.864Z,96.30
2022-10-03T05:56:14.230Z,96.30
2022-10-03T05:57:54.947Z,96.30
2022-10-03T05:59:37.240Z,96.30
2022-10-03T06:01:08.783Z,96.30
2022-10-03T06:02:56.138Z,96.30
2022-10-03T06:04:45.290Z,96.30
2022-10-03T06:06:09.003Z,96.30
2022-10-03T06:07:24.515Z,96.30
2022-10-03T06:08:55.440Z,96.30
2022-10-03T06:10:39.764Z,96.30
2022-10-03T06:12:18.053Z,96.30
2022-10-03T06:13:37.825Z,96.30
2022-10-03T06:15:17.788Z,96.30
2022-10-03T06:16:36.774Z,96.30
2022-10-03T06:18:02.037Z,96.30
2022-10-03T06:19:19.900Z,96.30
2022-10-03T06:21:20.965Z,96.30
2022-10-03T06:23:10.227Z,96.30
2022-10-03T06:25:07.511Z,96.30
2022-10-03T06:26:56.124Z,96.30
2022-10-03T06:28:39.015Z,96.30
2022-10-03T06:30:05.709Z,96.30
2022-10-03T06:32:01.955Z,96.30
2022-10-03T06:34:13.978Z,96.30
2022-10-03T06:36:14.975Z,96.30
2022-10-03T06:37:58.150Z,96.30
2022-10-03T06:39:57.977Z,96.30
2022-10-03T06:41:43.623Z,96.30
2022-10-03T06:43:12.939Z,96.30
2022-10-03T06:44:37.244Z,96.30
2022-10-03T06:46:28.182Z,96.30
2022-10-03T06:47:51.842Z,96.30
2022-10-03T06:49:46.599Z,96.30
2022-10-03T06:51:28.312Z,96.30
2022-10-03T06:53:17.473Z,96.30
2022-10-03T06:55:39.221Z,96.30
2022-10-03T06:57:26.207Z,96.30
2022-10-03T06:59:10.315Z,96.30
2022-10-03T07:00:18.494Z,96.30
2022-10-03T07:02:19.008Z,96.30
2022-10-03T07:03:56.012Z,96.30
2022-10-03T07:05:47.684Z,96.30
2022-10-03T07:07:16.301Z,96.30
2022-10-03T07:09:26.339Z,96.30
2022-10-03T07:10:55.443Z,96.30
2022-10-03T07:12:59.203Z,96.30
2022-10-03T07:14:48.891Z,96.30
2022-10-03T07:16:54.294Z,96.30
2022-10-03T07:18:39.005Z,96.30
2022-10-03T07:20:46.431Z,96.30
2022-10-03T07:22:37.198Z,96.30
2022-10-03T07:24:11.332Z,96.30
2022-10-03T07:26:08.801Z,96.30
2022-10-03T07:27:30.540Z,96.30
2022-10-03T07:29:30.519Z,96.30
2022-10-03T07:30:56.872Z,96.30
2022-10-03T07:32:31.854Z,96.30
2022-10-03T07:34:17.711Z,96.30
2022-10-03T07:36:15.107Z,96.30
2022-10-03T07:38:03.230Z,96.30
2022-10-03T07:40:01.262Z,96.30
2022-10-03T07:41:43.484Z,96.30
2022-10-03T07:43:56.090Z,96.30
2022-10-03T07:45:39.372Z,96.30
2022-10-03T07:47:45.657Z,96.30
2022-10-03T07:49:26.596Z,96.30
2022-10-03T07:51:12.129Z,96.30
2022-10-03T07:52:54.259Z,96.30
2022-10-03T07:54:55.891Z,96.30
2022-10-03T07:56:10.147Z,96.30
2022-10-03T07:57:40.769Z,96.30
2022-10-03T07:59:05.594Z,96.30
2022-10-03T08:00:22.764Z,96.30
2022-10-03T08:01:53.382Z,96.30
2022-10-03T08:03:55.431Z,96.30
2022-10-03T08:05:17.578Z,96.30
2022-10-03T08:06:30.295Z,96.30
2022-10-03T08:08:23.554Z,96.30
2022-10-03T08:09:54.309Z,96.30
2022-10-03T08:11:23.876Z,96.30
2022-10-03T08:13:22.344Z,96.30
2022-10-03T08:14:42.877Z,96.30
2022-10-03T08:16:17.150Z,96.30
2022-10-03T08:18:06.866Z,96.30
2022-10-03T08:19:30.445Z,96.30
2022-10-03T08:20:55.315Z,96.30
2022-10-03T08:22:13.531Z,96.30
2022-10-03T08:24:02.971Z,96.30
2022-10-03T08:25:29.204Z,96.30
2022-10-03T08:27:24.345Z,96.30
2022-10-03T08:29:01.595Z,96.30
2022-10-03T08:30:25.567Z,96.30
2022-10-03T08:32:23.427Z,96.30
2022-10-03T08:33:52.050Z,96.30
2022-10-03T08:35:46.041Z,96.30
2022-10-03T08:37:33.479Z,96.30
2022-10-03T08:39:01.716Z,96.30
2022-10-03T08:41:07.761Z,96.30
2022-10-03T08:43:09.706Z,96.30
2022-10-03T08:45:03.503Z,96.30
2022-10-03T08:46:26.327Z,96.30
2022-10-03T08:48:38.955Z,96.30
2022-10-03T08:50:35.911Z,96.30
2022-10-03T08:52:03.364Z,96.30
2022-10-03T08:54:01.441Z,96.30
2022-10-03T08:55:57.598Z,96.30
2022-10-03T08:57:21.629Z,96.30
2022-10-03T08:59:07.742Z,96.30
2022-10-03T09:00:23.635Z,96.30
2022-10-03T09:01:46.319Z,96.30
2022-10-03T09:03:42.581Z,96.30
2022-10-03T09:05:49.374Z,96.30
2022-10-03T09:07:30.461Z,96.30
2022-10-03T09:09:07.767Z,96.30
2022-10-03T09:10:52.657Z,96.30
2022-10-03T09:12:58.517Z,96.30
2022-10-03T09:14:40.728Z,96.30
2022-10-03T09:16:31.386Z,96.30
2022-10-03T09:18:10.087Z,96.30
2022-10-03T09:19:52.393Z,96.30
2022-10-03T09:21:59.183Z,96.30
2022-10-03T09:23:53.445Z,96.30
2022-10-03T09:25:25.599Z,96.30
2022-10-03T09:27:24.488Z,96.30
2022-10-03T09:29:13.583Z,96.30
2022-10-03T09:30:31.699Z,96.30
2022-10-03T09:32:45.853Z,96.30
2022-10-03T09:34:38.901Z,96.30
2022-10-03T09:36:09.247Z,96.30
2022-10-03T09:37:44.172Z,96.30
2022-10-03T09:39:42.827Z,96.30
2022-10-03T09:41:29.469Z,96.30
2022-10-03T09:43:06.609Z,96.30
2022-10-03T09:44:51.437Z,96.30
2022-10-03T09:47:10.141Z,96.30
2022-10-03T09:48:50.962Z,96.30
2022-10-03T09:50:36.483Z,96.30
2022-10-03T09:51:55.421Z,96.30
2022-10-03T09:53:51.124Z,96.30
2022-10-03T09:55:39.435Z,96.30
2022-10-03T09:57:40.209Z,96.30
2022-10-03T09:59:20.502Z,96.30
2022-10-03T10:00:35.123Z,96.30
2022-10-03T10:01:43.595Z,96.30
2022-10-03T10:03:29.917Z,96.30
2022-10-03T10:04:55.844Z,96.30
2022-10-03T10:06:24.641Z,96.30
2022-10-03T10:08:29.643Z,96.30
2022-10-03T10:10:22.826Z,96.30
2022-10-03T10:11:45.781Z,96.30
2022-10-03T10:13:18.134Z,96.30
2022-10-03T10:15:02.181Z,96.30
2022-10-03T10:16:50.952Z,96.30
2022-10-03T10:18:34.117Z,95.90
2022-10-03T10:19:57.112Z,95.90
2022-10-03T10:22:06.014Z,95.60
2022-10-03T10:23:47.004Z,95.30
2022-10-03T10:25:36.815Z,94.20
2022-10-03T10:27:26.058Z,93.50
2022-10-03T10:29:25.692Z,93.10
2022-10-03T10:31:33.477Z,92.20
2022-10-03T10:33:44.230Z,91.30
2022-10-03T10:35:44.579Z,90.10
2022-10-03T10:37:27.288Z,89.20
2022-10-03T10:38:53.331Z,88.40
2022-10-03T10:40:42.348Z,88.30
2022-10-03T10:42:47.017Z,88.40
2022-10-03T10:44:43.429Z,86.90
2022-10-03T10:46:14.786Z,86.50
2022-10-03T10:48:21.339Z,85.70
2022-10-03T10:50:21.342Z,85.20
2022-10-03T10:52:28.455Z,84.60
2022-10-03T10:54:29.812Z,84.10
2022-10-03T10:56:30.716Z,83.50
2022-10-03T10:58:58.100Z,82.60
2022-10-03T11:00:27.309Z,82.80
2022-10-03T11:02:16.073Z,81.30
2022-10-03T11:04:15.883Z,80.40
2022-10-03T11:06:24.550Z,80.90
2022-10-03T11:08:27.202Z,80.70
2022-10-03T11:10:18.256Z,81.30
2022-10-03T11:12:20.418Z,82.10
2022-10-03T11:14:36.780Z,82.60
2022-10-03T11:17:15.471Z,82.40
2022-10-03T11:19:27.015Z,82.30
2022-10-03T11:21:40.450Z,81.70
2022-10-03T11:23:29.981Z,81.00
2022-10-03T11:25:28.305Z,81.10
2022-10-03T11:27:39.557Z,79.40
2022-10-03T11:29:42.132Z,79.10
2022-10-03T11:31:31.740Z,79.70
2022-10-03T11:33:37.711Z,79.40
2022-10-03T11:35:45.145Z,78.00
2022-10-03T11:37:26.329Z,77.50
2022-10-03T11:38:35.832Z,74.10
2022-10-03T11:39:49.176Z,74.30
2022-10-03T11:41:03.697Z,73.50
2022-10-03T11:42:22.659Z,73.40
2022-10-03T11:44:07.239Z,73.00
2022-10-03T11:45:27.012Z,73.00
2022-10-03T11:46:51.142Z,74.10
2022-10-03T11:48:09.771Z,75.00
2022-10-03T11:49:38.463Z,75.30
2022-10-03T11:50:51.332Z,75.90
2022-10-03T11:52:03.579Z,75.80
2022-10-03T11:53:22.300Z,75.30
2022-10-03T11:54:32.410Z,74.90
2022-10-03T11:55:41.471Z,74.90
2022-10-03T11:56:47.958Z,74.60
2022-10-03T11:58:08.617Z,73.80
2022-10-03T11:59:37.396Z,74.10
2022-10-03T12:00:47.135Z,74.60
2022-10-03T12:02:07.944Z,74.60
2022-10-03T12:03:20.363Z,75.00
2022-10-03T12:04:35.843Z,75.50
2022-10-03T12:05:52.841Z,74.80
2022-10-03T12:07:23.469Z,75.30
2022-10-03T12:08:53.946Z,74.10
2022-10-03T12:10:14.477Z,75.00
2022-10-03T12:11:24.038Z,75.20
2022-10-03T12:12:42.241Z,74.80
2022-10-03T12:14:02.091Z,75.40
2022-10-03T12:15:31.717Z,76.20
2022-10-03T12:16:58.610Z,76.10
2022-10-03T12:18:11.938Z,76.90
2022-10-03T12:19:31.021Z,76.50
2022-10-03T12:20:53.280Z,76.90
2022-10-03T12:22:00.766Z,77.00
2022-10-03T12:23:23.518Z,77.30
2022-10-03T12:24:29.707Z,77.60
2022-10-03T12:25:37.425Z,78.00
2022-10-03T12:26:52.363Z,78.00
2022-10-03T12:28:12.673Z,78.00
2022-10-03T12:29:19.509Z,78.00
2022-10-03T12:30:23.228Z,77.40
2022-10-03T12:31:31.637Z,77.90
2022-10-03T12:32:51.197Z,78.00
2022-10-03T12:34:02.726Z,78.30
2022-10-03T12:35:36.805Z,78.50
2022-10-03T12:36:53.085Z,79.10
2022-10-03T12:38:16.275Z,78.70
2022-10-03T12:39:34.994Z,78.40
2022-10-03T12:40:43.746Z,78.70
2022-10-03T12:42:07.881Z,78.90
2022-10-03T12:43:36.468Z,79.50
2022-10-03T12:44:48.946Z,79.80
2022-10-03T12:46:04.074Z,79.80
2022-10-03T12:47:54.259Z,80.00
2022-10-03T12:49:03.603Z,80.40
2022-10-03T12:50:24.066Z,80.30
2022-10-03T12:51:50.056Z,81.20
2022-10-03T12:53:21.597Z,80.50
2022-10-03T12:54:50.133Z,80.40
2022-10-03T12:56:14.921Z,80.10
2022-10-03T12:58:01.167Z,79.90
2022-10-03T12:59:31.789Z,80.40
2022-10-03T13:00:51.611Z,80.40
2022-10-03T13:02:22.480Z,80.30
2022-10-03T13:03:49.690Z,80.40
2022-10-03T13:05:37.703Z,81.00
2022-10-03T13:07:03.220Z,80.80
2022-10-03T13:08:30.519Z,80.60
2022-10-03T13:10:16.195Z,80.80
2022-10-03T13:11:37.366Z,80.80
2022-10-03T13:12:51.059Z,80.40
2022-10-03T13:14:15.849Z,80.90
2022-10-03T13:16:05.910Z,80.90
2022-10-03T13:17:23.572Z,80.60
2022-10-03T13:18:44.598Z,80.50
2022-10-03T13:20:00.231Z,80.50
2022-10-03T13:21:27.140Z,80.00
2022-10-03T13:22:45.489Z,80.20
2022-10-03T13:23:54.807Z,80.40
2022-10-03T13:25:09.043Z,80.50
2022-10-03T13:26:19.995Z,80.20
2022-10-03T13:27:38.058Z,81.50
2022-10-03T13:29:12.878Z,81.70
2022-10-03T13:30:24.095Z,81.00
2022-10-03T13:31:33.113Z,80.70
2022-10-03T13:32:39.128Z,81.00
2022-10-03T13:33:46.518Z,81.30
2022-10-03T13:35:37.649Z,81.60
2022-10-03T13:36:49.859Z,81.20
2022-10-03T13:38:37.142Z,80.90
2022-10-03T13:39:49.451Z,81.20
2022-10-03T13:41:00.467Z,80.10
2022-10-03T13:42:19.316Z,80.00
2022-10-03T13:43:27.205Z,80.50
2022-10-03T13:44:40.004Z,81.00
2022-10-03T13:45:47.111Z,80.90
2022-10-03T13:47:01.107Z,80.10
2022-10-03T13:48:12.652Z,80.60
2022-10-03T13:49:25.358Z,80.90
2022-10-03T13:50:41.329Z,81.00
2022-10-03T13:51:58.188Z,81.20
2022-10-03T13:53:08.154Z,82.60
2022-10-03T13:54:21.476Z,81.50
2022-10-03T13:55:43.530Z,81.10
2022-10-03T13:56:53.722Z,80.80
2022-10-03T13:58:36.947Z,80.20
2022-10-03T14:00:04.491Z,80.60
2022-10-03T14:01:42.190Z,80.60
2022-10-03T14:03:22.517Z,80.90
2022-10-03T14:05:09.281Z,81.20
2022-10-03T14:06:24.292Z,81.30
2022-10-03T14:07:43.833Z,81.40
2022-10-03T14:09:20.851Z,80.80
2022-10-03T14:11:08.071Z,80.60
2022-10-03T14:12:43.633Z,80.80
2022-10-03T14:14:21.526Z,80.90
2022-10-03T14:15:51.480Z,81.10
2022-10-03T14:17:00.790Z,81.10
2022-10-03T14:18:20.940Z,81.10
2022-10-03T14:19:36.736Z,81.40
2022-10-03T14:21:49.764Z,80.50
2022-10-03T14:23:11.869Z,80.90
2022-10-03T14:24:43.094Z,80.70
2022-10-03T14:26:00.316Z,81.10
2022-10-03T14:27:18.845Z,81.20
2022-10-03T14:28:30.205Z,81.50
2022-10-03T14:29:47.047Z,81.50
2022-10-03T14:31:06.699Z,81.50
2022-10-03T14:32:45.511Z,81.60
2022-10-03T14:33:53.705Z,81.20
2022-10-03T14:35:09.015Z,81.30
2022-10-03T14:36:37.436Z,81.30
2022-10-03T14:37:47.314Z,81.40
2022-10-03T14:39:07.631Z,81.10
2022-10-03T14:40:19.553Z,81.10
2022-10-03T14:41:34.167Z,81.20
2022-10-03T14:42:54.706Z,80.80
2022-10-03T14:43:59.996Z,81.40
2022-10-03T14:45:10.273Z,81.60
2022-10-03T14:46:16.429Z,81.90
2022-10-03T14:47:21.937Z,82.20
2022-10-03T14:48:31.394Z,82.30
2022-10-03T14:49:57.883Z,81.80
2022-10-03T14:51:13.977Z,81.90
2022-10-03T14:52:34.494Z,81.90
2022-10-03T14:53:40.015Z,82.10
2022-10-03T14:54:43.934Z,82.20
2022-10-03T14:55:58.217Z,82.20
2022-10-03T14:58:05.602Z,82.50
2022-10-03T14:59:19.314Z,82.80
2022-10-03T15:00:39.315Z,82.60
2022-10-03T15:01:51.828Z,82.80
2022-10-03T15:02:55.468Z,82.80
2022-10-03T15:04:06.345Z,82.80
2022-10-03T15:05:14.977Z,82.80
2022-10-03T15:06:36.826Z,82.60
2022-10-03T15:07:43.831Z,82.40
2022-10-03T15:08:53.777Z,82.40
2022-10-03T15:09:58.593Z,82.40
2022-10-03T15:11:03.058Z,82.20
2022-10-03T15:12:12.839Z,82.10
2022-10-03T15:13:19.843Z,81.90
2022-10-03T15:14:27.368Z,82.10
2022-10-03T15:15:35.634Z,82.10
2022-10-03T15:16:46.157Z,82.10
2022-10-03T15:17:53.525Z,82.10
2022-10-03T15:19:02.759Z,81.90
2022-10-03T15:20:13.885Z,82.00
2022-10-03T15:21:17.990Z,82.20
2022-10-03T15:22:33.260Z,82.10
2022-10-03T15:23:42.784Z,82.10
2022-10-03T15:24:47.700Z,82.30
2022-10-03T15:25:55.214Z,82.60
2022-10-03T15:27:03.300Z,82.50
2022-10-03T15:28:12.353Z,82.70
2022-10-03T15:29:17.077Z,82.80
2022-10-03T15:30:31.585Z,83.00
2022-10-03T15:31:39.392Z,82.90
2022-10-03T15:32:47.243Z,82.90
2022-10-03T15:33:53.572Z,83.20
2022-10-03T15:35:01.558Z,83.30
2022-10-03T15:36:14.626Z,83.40
2022-10-03T15:37:23.013Z,83.40
2022-10-03T15:38:34.972Z,83.60
2022-10-03T15:39:43.921Z,83.60
2022-10-03T15:40:51.673Z,83.70
2022-10-03T15:41:59.994Z,83.70
2022-10-03T15:43:19.885Z,83.70
2022-10-03T15:44:32.959Z,83.70
2022-10-03T15:45:37.323Z,83.70
2022-10-03T15:46:48.059Z,83.40
2022-10-03T15:47:52.853Z,83.40
2022-10-03T15:49:01.419Z,83.30
2022-10-03T15:50:18.388Z,83.30
2022-10-03T15:51:29.100Z,83.40
2022-10-03T15:52:44.174Z,83.40
2022-10-03T15:53:51.840Z,83.50
2022-10-03T15:55:12.000Z,83.70
2022-10-03T15:56:28.935Z,83.80
2022-10-03T15:57:44.270Z,84.00
2022-10-03T15:58:55.283Z,84.20
2022-10-03T16:00:03.023Z,84.20
2022-10-03T16:01:20.110Z,83.80
2022-10-03T16:02:35.431Z,83.80
2022-10-03T16:03:47.354Z,83.80
2022-10-03T16:04:57.065Z,84.00
2022-10-03T16:06:10.359Z,84.00
2022-10-03T16:07:24.747Z,84.00
2022-10-03T16:08:33.391Z,84.10
2022-10-03T16:09:50.762Z,84.20
2022-10-03T16:11:09.352Z,84.30
2022-10-03T16:12:40.877Z,84.40
2022-10-03T16:13:47.868Z,84.40
2022-10-03T16:14:57.959Z,84.60
2022-10-03T16:16:15.350Z,84.70
2022-10-03T16:17:29.785Z,84.80
2022-10-03T16:18:56.846Z,84.90
2022-10-03T16:20:10.655Z,85.00
2022-10-03T16:21:17.584Z,85.10
2022-10-03T16:22:32.074Z,85.20
2022-10-03T16:23:38.429Z,85.20
2022-10-03T16:25:12.991Z,85.30
2022-10-03T16:26:28.655Z,85.30
2022-10-03T16:27:35.832Z,85.30
2022-10-03T16:28:44.714Z,85.10
2022-10-03T16:30:00.035Z,85.30
2022-10-03T16:31:06.158Z,85.40
2022-10-03T16:32:17.837Z,85.50
2022-10-03T16:33:27.640Z,85.60
2022-10-03T16:34:41.358Z,85.70
2022-10-03T16:35:48.431Z,85.80
2022-10-03T16:36:53.003Z,85.80
2022-10-03T16:37:56.727Z,85.90
2022-10-03T16:39:02.926Z,85.90
2022-10-03T16:40:09.131Z,85.90
2022-10-03T16:41:22.076Z,86.00
2022-10-03T16:42:43.084Z,86.20
2022-10-03T16:43:57.514Z,86.40
2022-10-03T16:45:02.853Z,86.50
2022-10-03T16:46:22.722Z,86.50
2022-10-03T16:47:34.568Z,86.60
2022-10-03T16:49:02.608Z,86.70
2022-10-03T16:50:26.417Z,86.80
2022-10-03T16:51:40.320Z,86.90
2022-10-03T16:52:48.750Z,87.00
2022-10-03T16:53:56.761Z,87.00
2022-10-03T16:55:07.430Z,87.00
2022-10-03T16:56:17.564Z,87.20
2022-10-03T16:57:29.916Z,87.30
2022-10-03T16:58:39.980Z,87.40
2022-10-03T16:59:46.912Z,87.50
2022-10-03T17:01:25.281Z,87.60
2022-10-03T17:02:29.492Z,87.70
2022-10-03T17:03:44.033Z,87.70
2022-10-03T17:04:49.552Z,87.70
2022-10-03T17:05:59.780Z,87.60
2022-10-03T17:07:16.199Z,87.70
2022-10-03T17:08:41.233Z,87.80
2022-10-03T17:09:47.957Z,87.80
2022-10-03T17:10:55.408Z,88.00
2022-10-03T17:12:00.755Z,88.20
2022-10-03T17:13:12.325Z,88.20
2022-10-03T17:14:20.861Z,88.30
2022-10-03T17:15:28.964Z,88.50
2022-10-03T17:16:44.226Z,88.60
2022-10-03T17:17:57.368Z,88.70
2022-10-03T17:19:27.214Z,88.70
2022-10-03T17:20:43.993Z,88.80
2022-10-03T17:21:54.912Z,88.80
2022-10-03T17:23:02.722Z,88.80
2022-10-03T17:24:13.495Z,88.90
2022-10-03T17:25:39.053Z,88.90
2022-10-03T17:26:44.839Z,89.00
2022-10-03T17:27:51.649Z,89.10
2022-10-03T17:29:02.995Z,89.20
2022-10-03T17:30:28.857Z,89.30
2022-10-03T17:31:35.794Z,89.50
2022-10-03T17:32:43.306Z,89.50
2022-10-03T17:33:50.904Z,89.50
2022-10-03T17:35:05.148Z,89.50
2022-10-03T17:37:01.112Z,89.60
2022-10-03T17:38:48.239Z,89.60
2022-10-03T17:39:58.706Z,89.70
2022-10-03T17:41:18.760Z,89.80
2022-10-03T17:42:44.847Z,89.90
2022-10-03T17:44:01.571Z,89.90
2022-10-03T17:45:20.604Z,90.00
2022-10-03T17:46:35.993Z,90.10
2022-10-03T17:47:52.106Z,90.20
2022-10-03T17:49:06.507Z,90.20
2022-10-03T17:50:18.738Z,90.40
2022-10-03T17:51:37.029Z,90.40
2022-10-03T17:52:44.240Z,90.40
2022-10-03T17:53:57.322Z,90.60
2022-10-03T17:55:04.963Z,90.60
2022-10-03T17:56:13.942Z,90.60
2022-10-03T17:57:22.026Z,90.80
2022-10-03T17:58:31.702Z,90.80
2022-10-03T17:59:46.807Z,90.90
2022-10-03T18:01:06.660Z,91.00
2022-10-03T18:02:20.508Z,91.00
2022-10-03T18:03:29.887Z,91.10
2022-10-03T18:04:39.048Z,91.10
2022-10-03T18:05:47.013Z,91.10
2022-10-03T18:06:54.677Z,91.20
2022-10-03T18:08:07.727Z,91.20
2022-10-03T18:09:26.696Z,91.20
2022-10-03T18:10:35.449Z,91.30
2022-10-03T18:11:40.612Z,91.30
2022-10-03T18:12:45.466Z,91.40
2022-10-03T18:13:57.779Z,91.40
2022-10-03T18:15:39.381Z,91.40
2022-10-03T18:16:53.459Z,91.60
2022-10-03T18:18:26.175Z,91.60
2022-10-03T18:19:50.675Z,91.70
2022-10-03T18:21:02.712Z,91.70
2022-10-03T18:22:16.819Z,91.70
2022-10-03T18:23:53.677Z,91.80
2022-10-03T18:25:01.453Z,91.80
2022-10-03T18:26:20.295Z,91.90
2022-10-03T18:28:12.729Z,92.00
2022-10-03T18:29:26.049Z,92.00
2022-10-03T18:30:35.533Z,92.10
2022-10-03T18:31:45.381Z,92.10
2022-10-03T18:32:53.245Z,92.20
2022-10-03T18:34:00.952Z,92.20
2022-10-03T18:35:12.904Z,92.20
2022-10-03T18:36:23.757Z,92.40